< < Back
Terminal Aerodrome Forecast


Current Version              Previous Versions:   1  2  3  4  5  6  7  8  9  

Terminal Aerodrome Forecast

526
FTUS42 KJAX 281818 AAA
TAFGNV
TAF AMD
KGNV 281818Z 2818/2918 31015G22KT P6SM SKC
     FM290000 34004KT P6SM SKC=

Latest METAR

158
SAUS70 KWBC 291600 RRH
MTRGNV
METAR KGNV 291553Z 05007KT 10SM CLR 16/M04 A3040 RMK AO2 SLP295
T01561039


USA.gov is the U.S. government's official web portal to all federal, state and local government web resources and services.